createdAt,value
2017-11-03T08:58:25.269Z,1064
2017-11-03T08:58:57.459Z,1068
2017-11-03T08:59:29.598Z,1076
2017-11-03T09:00:01.813Z,1076
2017-11-03T09:00:34.010Z,1080
2017-11-03T09:01:06.075Z,1080
2017-11-03T09:01:38.226Z,1080
2017-11-03T09:02:10.421Z,1080
2017-11-03T09:02:42.647Z,1080
2017-11-03T09:03:14.825Z,1084
2017-11-03T09:03:47.007Z,1088
2017-11-03T09:04:19.235Z,1096
2017-11-03T09:04:51.404Z,1100
2017-11-03T09:05:23.565Z,1104
2017-11-03T09:05:55.658Z,1116
2017-11-03T09:06:27.797Z,1132
2017-11-03T09:07:00.016Z,1152
2017-11-03T09:07:32.262Z,1172
2017-11-03T09:08:04.513Z,1196
2017-11-03T09:08:36.828Z,1224
2017-11-03T09:09:09.066Z,1260
2017-11-03T09:09:41.219Z,1292
2017-11-03T09:10:13.406Z,1324
2017-11-03T09:10:45.806Z,1352
2017-11-03T09:11:18.163Z,1380
2017-11-03T09:11:50.370Z,1404
2017-11-03T09:12:22.531Z,1428
2017-11-03T09:12:54.655Z,1448
2017-11-03T09:13:26.871Z,1472
2017-11-03T09:13:59.107Z,1504
2017-11-03T09:14:31.359Z,1532
2017-11-03T09:15:03.614Z,1568
2017-11-03T09:15:35.867Z,1608
2017-11-03T09:16:07.941Z,1644
2017-11-03T09:16:40.170Z,1680
2017-11-03T09:17:12.403Z,1720
2017-11-03T09:17:44.778Z,1752
2017-11-03T09:18:16.981Z,1772
2017-11-03T09:18:49.129Z,1780
2017-11-03T09:19:21.288Z,1780
2017-11-03T09:19:53.418Z,1784
2017-11-03T09:20:25.693Z,1788
2017-11-03T09:20:58.005Z,1792
2017-11-03T09:21:30.131Z,1800
2017-11-03T09:22:02.317Z,1808
2017-11-03T09:22:34.645Z,1820
2017-11-03T09:23:07.019Z,1824
2017-11-03T09:23:39.290Z,1820
2017-11-03T09:24:11.607Z,1820
2017-11-03T09:24:44.464Z,1808
2017-11-03T09:25:16.712Z,1804
2017-11-03T09:25:48.823Z,1800
2017-11-03T09:26:21.127Z,1796
2017-11-03T09:26:53.240Z,1796
2017-11-03T09:27:25.348Z,1788
2017-11-03T09:27:57.502Z,1784
2017-11-03T09:28:29.644Z,1780
2017-11-03T09:29:01.882Z,1780
2017-11-03T09:29:34.069Z,1772
2017-11-03T09:30:06.308Z,1768
2017-11-03T09:30:38.412Z,1772
2017-11-03T09:31:10.640Z,1776
2017-11-03T09:31:42.916Z,1784
2017-11-03T09:32:15.137Z,1788
2017-11-03T09:32:47.218Z,1788
2017-11-03T09:33:19.945Z,1792
2017-11-03T09:33:52.243Z,1792
2017-11-03T09:34:24.507Z,1796
2017-11-03T09:34:56.787Z,1804
2017-11-03T09:35:28.998Z,1812
2017-11-03T09:36:01.138Z,1824
2017-11-03T09:36:33.258Z,1840
2017-11-03T09:37:05.953Z,1852
2017-11-03T09:37:38.058Z,1860
2017-11-03T09:38:10.199Z,1868
2017-11-03T09:38:42.354Z,1876
2017-11-03T09:39:14.468Z,1868
2017-11-03T09:39:46.571Z,1868
2017-11-03T09:40:25.577Z,1864
2017-11-03T09:40:57.742Z,1860
2017-11-03T09:41:30.891Z,1864
2017-11-03T09:42:03.092Z,1860
2017-11-03T09:42:35.197Z,1860
2017-11-03T09:43:07.468Z,1864
2017-11-03T09:43:39.582Z,1868
2017-11-03T09:44:15.456Z,1872
2017-11-03T09:44:47.741Z,1876
2017-11-03T09:45:20.057Z,1884
2017-11-03T09:45:52.248Z,1900
2017-11-03T09:46:24.451Z,1912
2017-11-03T09:46:56.693Z,1928
2017-11-03T09:47:28.910Z,1936
2017-11-03T09:48:01.044Z,1940
2017-11-03T09:48:33.266Z,1940
2017-11-03T09:49:05.289Z,1936
2017-11-03T09:49:37.484Z,1928
2017-11-03T09:50:09.585Z,1928
2017-11-03T09:50:41.717Z,1932
2017-11-03T09:51:15.119Z,1936
2017-11-03T09:51:50.471Z,1936
2017-11-03T09:52:25.136Z,1948
2017-11-03T09:52:57.931Z,1952
2017-11-03T09:53:30.052Z,1948
2017-11-03T09:54:02.204Z,1956
2017-11-03T09:54:34.269Z,1960
2017-11-03T09:55:06.324Z,1960
2017-11-03T09:55:38.403Z,1956
2017-11-03T09:56:10.488Z,1948
2017-11-03T09:56:42.618Z,1924
2017-11-03T09:57:14.936Z,1848
2017-11-03T09:57:47.066Z,1736
2017-11-03T09:58:19.219Z,1644
2017-11-03T09:58:51.450Z,1560
2017-11-03T09:59:23.593Z,1560
2017-11-03T09:59:55.753Z,1612
2017-11-03T10:00:28.055Z,1656
2017-11-03T10:01:00.223Z,1700
2017-11-03T10:01:32.315Z,1692
2017-11-03T10:02:05.340Z,1576
2017-11-03T10:02:37.639Z,1340
2017-11-03T10:03:09.681Z,1148
2017-11-03T10:03:41.750Z,1100
2017-11-03T10:04:13.847Z,1228
2017-11-03T10:04:46.193Z,1372
2017-11-03T10:05:18.399Z,1472
2017-11-03T10:05:50.683Z,1508
2017-11-03T10:06:22.886Z,1536
2017-11-03T10:06:55.066Z,1592
2017-11-03T10:07:27.314Z,1636
2017-11-03T10:08:03.833Z,1556
2017-11-03T10:08:36.648Z,1396
2017-11-03T10:09:08.845Z,1276
2017-11-03T10:09:41.094Z,1220
2017-11-03T10:10:13.385Z,1204
2017-11-03T10:10:45.527Z,1296
2017-11-03T10:11:17.716Z,1436
2017-11-03T10:11:49.855Z,1544
2017-11-03T10:12:22.080Z,1600
2017-11-03T10:12:54.233Z,1600
2017-11-03T10:13:26.477Z,1596
2017-11-03T10:13:58.645Z,1656
2017-11-03T10:14:30.832Z,1696
2017-11-03T10:15:03.137Z,1704
2017-11-03T10:15:35.234Z,1712
2017-11-03T10:16:07.442Z,1716
2017-11-03T10:16:39.476Z,1712
2017-11-03T10:17:11.552Z,1744
2017-11-03T10:17:43.694Z,1800
2017-11-03T10:18:15.917Z,1832
2017-11-03T10:18:48.121Z,1816
2017-11-03T10:19:20.337Z,1808
2017-11-03T10:19:52.483Z,1820
2017-11-03T10:20:24.718Z,1812
2017-11-03T10:20:56.916Z,1820
2017-11-03T10:21:29.093Z,1828
2017-11-03T10:22:01.345Z,1864
2017-11-03T10:22:33.487Z,1880
2017-11-03T10:23:05.724Z,1892
2017-11-03T10:23:37.856Z,1888
2017-11-03T10:24:09.991Z,1876
2017-11-03T10:24:42.159Z,1848
2017-11-03T10:25:14.362Z,1824
2017-11-03T10:25:46.564Z,1804
2017-11-03T10:26:18.845Z,1784
2017-11-03T10:26:50.932Z,1780
2017-11-03T10:27:23.119Z,1788
2017-11-03T10:27:55.777Z,1808
2017-11-03T10:28:27.830Z,1816
2017-11-03T10:29:00.630Z,1820
2017-11-03T10:29:32.812Z,1824
2017-11-03T10:30:05.046Z,1828
2017-11-03T10:30:37.155Z,1824
2017-11-03T10:31:09.481Z,1824
2017-11-03T10:31:41.542Z,1828
2017-11-03T10:32:13.704Z,1836
2017-11-03T10:32:45.732Z,1844
2017-11-03T10:33:17.897Z,1848
2017-11-03T10:33:50.011Z,1872
2017-11-03T10:34:22.123Z,1892
2017-11-03T10:34:54.336Z,1912
2017-11-03T10:35:27.958Z,1944
2017-11-03T10:36:00.213Z,1980
2017-11-03T10:36:32.493Z,2012
2017-11-03T10:37:04.633Z,2040
2017-11-03T10:37:36.859Z,2076
2017-11-03T10:38:09.203Z,2112
2017-11-03T10:38:41.397Z,2148
2017-11-03T10:39:23.309Z,2192
2017-11-03T10:39:55.316Z,2220
2017-11-03T10:40:27.492Z,2252
2017-11-03T10:40:59.768Z,2268
2017-11-03T10:41:31.849Z,2272
2017-11-03T10:42:04.235Z,2264
2017-11-03T10:42:36.360Z,2252
2017-11-03T10:43:08.508Z,2232
2017-11-03T10:43:40.674Z,2212
2017-11-03T10:44:13.432Z,2188
2017-11-03T10:44:45.527Z,2176
2017-11-03T10:45:17.629Z,2160
2017-11-03T10:45:49.734Z,2160
2017-11-03T10:46:21.882Z,2152
2017-11-03T10:46:54.053Z,2140
2017-11-03T10:47:26.211Z,2124
2017-11-03T10:47:58.236Z,2100
2017-11-03T10:48:30.424Z,2084
2017-11-03T10:49:02.628Z,2060
2017-11-03T10:49:34.822Z,2044
2017-11-03T10:50:06.896Z,2032
2017-11-03T10:50:39.086Z,2028
2017-11-03T10:51:11.369Z,2016
2017-11-03T10:51:43.596Z,1992
2017-11-03T10:52:15.759Z,1960
2017-11-03T10:52:47.840Z,1936
2017-11-03T10:53:19.924Z,1908
2017-11-03T10:53:52.188Z,1880
2017-11-03T10:54:24.380Z,1860
2017-11-03T10:54:56.588Z,1904
2017-11-03T10:55:28.660Z,1948
2017-11-03T10:56:00.870Z,1972
2017-11-03T10:56:33.071Z,1996
2017-11-03T10:57:05.336Z,2020
2017-11-03T10:57:37.583Z,2040
2017-11-03T10:58:10.340Z,2060
2017-11-03T10:58:42.394Z,2072
2017-11-03T10:59:14.688Z,2076
2017-11-03T10:59:46.916Z,2068
2017-11-03T11:00:19.059Z,2068
2017-11-03T11:00:51.812Z,2072
2017-11-03T11:01:23.885Z,2076
2017-11-03T11:01:56.096Z,2096
2017-11-03T11:02:28.217Z,2120
2017-11-03T11:03:00.302Z,2144
2017-11-03T11:03:32.482Z,2152
2017-11-03T11:04:04.663Z,2160
2017-11-03T11:04:36.778Z,2184
2017-11-03T11:05:08.846Z,2200
2017-11-03T11:05:40.974Z,2204
2017-11-03T11:06:13.246Z,2216
2017-11-03T11:06:45.675Z,2228
2017-11-03T11:07:17.893Z,2232
2017-11-03T11:07:49.986Z,2216
2017-11-03T11:08:22.179Z,2204
2017-11-03T11:08:54.359Z,2180
2017-11-03T11:09:26.513Z,2148
2017-11-03T11:09:58.676Z,2120
2017-11-03T11:10:30.814Z,2080
2017-11-03T11:11:03.381Z,2056
2017-11-03T11:11:35.579Z,2032
2017-11-03T11:12:07.716Z,2000
2017-11-03T11:12:39.863Z,1956
2017-11-03T11:13:12.176Z,1932
2017-11-03T11:13:44.291Z,1908
2017-11-03T11:14:16.384Z,1896
2017-11-03T11:14:48.412Z,1920
2017-11-03T11:15:20.649Z,1924
2017-11-03T11:15:52.963Z,1940
2017-11-03T11:16:25.122Z,1968
2017-11-03T11:16:57.254Z,2012
2017-11-03T11:17:29.355Z,2044
2017-11-03T11:18:01.443Z,2056
2017-11-03T11:18:33.602Z,2080
2017-11-03T11:19:05.722Z,2104
2017-11-03T11:19:37.958Z,2120
2017-11-03T11:20:10.038Z,2124
2017-11-03T11:20:42.185Z,2124
2017-11-03T11:21:14.258Z,2132
2017-11-03T11:21:46.446Z,2148
2017-11-03T11:22:18.556Z,2172
2017-11-03T11:22:50.689Z,2204
2017-11-03T11:23:22.896Z,2236
2017-11-03T11:23:55.092Z,2272
2017-11-03T11:24:27.224Z,2300
2017-11-03T11:24:59.472Z,2336
2017-11-03T11:25:31.509Z,2384
2017-11-03T11:26:03.769Z,2424
2017-11-03T11:26:35.783Z,2452
2017-11-03T11:27:07.911Z,2472
2017-11-03T11:27:40.059Z,2484
2017-11-03T11:28:12.089Z,2480
2017-11-03T11:28:44.274Z,2464
2017-11-03T11:29:16.597Z,2432
2017-11-03T11:29:48.993Z,2412
2017-11-03T11:30:21.255Z,2392
2017-11-03T11:30:53.349Z,2364
2017-11-03T11:31:25.486Z,2328
2017-11-03T11:31:57.612Z,2296
2017-11-03T11:32:29.761Z,2280
2017-11-03T11:33:01.834Z,2272
2017-11-03T11:33:33.954Z,2264
2017-11-03T11:34:05.982Z,2260
2017-11-03T11:34:38.133Z,2248
2017-11-03T11:35:10.278Z,2252
2017-11-03T11:35:42.381Z,2244
2017-11-03T11:36:14.572Z,2240
2017-11-03T11:36:46.722Z,2256
2017-11-03T11:37:18.913Z,2276
2017-11-03T11:37:51.093Z,2284
2017-11-03T11:38:23.325Z,2288
2017-11-03T11:38:55.465Z,2304
2017-11-03T11:39:27.689Z,2308
2017-11-03T11:39:59.868Z,2328
2017-11-03T11:40:31.967Z,2352
2017-11-03T11:41:04.164Z,2380
2017-11-03T11:41:36.347Z,2404
2017-11-03T11:42:08.525Z,2416
2017-11-03T11:42:40.546Z,2416
2017-11-03T11:43:12.678Z,2408
2017-11-03T11:43:44.758Z,2400
2017-11-03T11:44:16.778Z,2388
2017-11-03T11:44:48.852Z,2368
2017-11-03T11:45:20.987Z,2340
2017-11-03T11:45:53.179Z,2308
2017-11-03T11:46:25.284Z,2284
2017-11-03T11:46:57.500Z,2260
2017-11-03T11:47:29.774Z,2232
2017-11-03T11:48:02.015Z,2204
2017-11-03T11:48:34.205Z,2172
2017-11-03T11:49:06.388Z,2132
2017-11-03T11:49:38.522Z,2072
2017-11-03T11:50:10.832Z,2000
2017-11-03T11:50:42.966Z,1956
2017-11-03T11:51:15.287Z,1932
2017-11-03T11:51:47.589Z,1916
2017-11-03T11:52:19.748Z,1900
2017-11-03T11:52:51.844Z,1892
2017-11-03T11:53:24.088Z,1888
2017-11-03T11:53:56.329Z,1880
2017-11-03T11:54:28.434Z,1832
2017-11-03T11:55:00.629Z,1828
2017-11-03T11:55:32.796Z,1856
2017-11-03T11:56:04.948Z,1916
2017-11-03T11:56:37.284Z,1968
2017-11-03T11:57:09.413Z,2004
2017-11-03T11:57:41.534Z,2000
2017-11-03T11:58:13.724Z,1980
2017-11-03T11:58:45.853Z,1952
2017-11-03T11:59:17.992Z,1956
2017-11-03T11:59:50.174Z,1964
2017-11-03T12:00:22.270Z,1964
2017-11-03T12:00:54.452Z,1964
2017-11-03T12:01:26.659Z,1972
2017-11-03T12:01:58.741Z,1968
2017-11-03T12:02:30.957Z,1960
2017-11-03T12:03:03.243Z,1948
2017-11-03T12:03:35.457Z,1928
2017-11-03T12:04:07.667Z,1904
2017-11-03T12:04:39.899Z,1884
2017-11-03T12:05:12.051Z,1864
2017-11-03T12:05:44.183Z,1852
2017-11-03T12:06:16.370Z,1836
2017-11-03T12:06:48.538Z,1824
2017-11-03T12:07:20.563Z,1816
2017-11-03T12:07:52.653Z,1808
2017-11-03T12:08:24.801Z,1800
2017-11-03T12:08:56.937Z,1788
2017-11-03T12:09:29.128Z,1780
2017-11-03T12:10:01.313Z,1772
2017-11-03T12:10:33.487Z,1760
2017-11-03T12:11:05.732Z,1744
2017-11-03T12:11:37.975Z,1720
2017-11-03T12:12:10.209Z,1700
2017-11-03T12:12:42.400Z,1684
2017-11-03T12:13:14.478Z,1664
2017-11-03T12:13:46.616Z,1652
2017-11-03T12:14:18.692Z,1632
2017-11-03T12:14:50.900Z,1616
2017-11-03T12:15:23.039Z,1600
2017-11-03T12:15:55.193Z,1592
2017-11-03T12:16:27.346Z,1584
2017-11-03T12:16:59.508Z,1568
2017-11-03T12:17:31.687Z,1564
2017-11-03T12:18:03.878Z,1556
2017-11-03T12:18:36.078Z,1548
2017-11-03T12:19:08.227Z,1548
2017-11-03T12:19:40.425Z,1548
2017-11-03T12:20:12.554Z,1544
2017-11-03T12:20:44.691Z,1536
2017-11-03T12:21:17.102Z,1524
2017-11-03T12:21:49.258Z,1512
2017-11-03T12:22:21.348Z,1508
2017-11-03T12:22:53.464Z,1508
2017-11-03T12:23:25.781Z,1508
2017-11-03T12:23:57.989Z,1508
2017-11-03T12:24:30.128Z,1500
2017-11-03T12:25:02.303Z,1496
2017-11-03T12:25:34.432Z,1496
2017-11-03T12:26:06.627Z,1496
2017-11-03T12:26:38.729Z,1492
2017-11-03T12:27:10.889Z,1484
2017-11-03T12:27:43.027Z,1480
2017-11-03T12:28:15.180Z,1472
2017-11-03T12:28:47.428Z,1464
2017-11-03T12:29:19.773Z,1456
2017-11-03T12:29:51.964Z,1452
2017-11-03T12:30:24.050Z,1444
2017-11-03T12:30:56.075Z,1436
2017-11-03T12:31:28.272Z,1428
2017-11-03T12:32:00.535Z,1424
2017-11-03T12:32:32.776Z,1420
2017-11-03T12:33:04.862Z,1416
2017-11-03T12:33:37.061Z,1408
2017-11-03T12:34:09.883Z,1408
2017-11-03T12:34:41.927Z,1408
2017-11-03T12:35:14.260Z,1408
2017-11-03T12:35:46.455Z,1400
2017-11-03T12:36:18.631Z,1392
2017-11-03T12:36:50.780Z,1392
2017-11-03T12:37:23.021Z,1388
2017-11-03T12:37:55.248Z,1388
2017-11-03T12:38:27.451Z,1392
2017-11-03T12:38:59.459Z,1392
2017-11-03T12:39:31.589Z,1388
2017-11-03T12:40:03.847Z,1392
2017-11-03T12:40:36.115Z,1388
2017-11-03T12:41:08.394Z,1388
2017-11-03T12:41:40.638Z,1384
2017-11-03T12:42:12.727Z,1392
2017-11-03T12:42:44.862Z,1396
2017-11-03T12:43:17.583Z,1400
2017-11-03T12:43:49.806Z,1408
2017-11-03T12:44:22.050Z,1416
2017-11-03T12:44:54.236Z,1420
2017-11-03T12:45:26.364Z,1416
2017-11-03T12:45:58.542Z,1416
2017-11-03T12:46:30.667Z,1408
2017-11-03T12:47:02.855Z,1404
2017-11-03T12:47:35.078Z,1400
2017-11-03T12:48:07.293Z,1400
2017-11-03T12:48:39.496Z,1396
2017-11-03T12:49:11.706Z,1396
2017-11-03T12:49:43.726Z,1396
2017-11-03T12:50:15.959Z,1396
2017-11-03T12:50:48.086Z,1392
2017-11-03T12:51:20.191Z,1384
2017-11-03T12:51:52.316Z,1384
2017-11-03T12:52:24.584Z,1368
2017-11-03T12:52:56.771Z,1344
2017-11-03T12:53:28.951Z,1320
2017-11-03T12:54:01.072Z,1308
2017-11-03T12:54:33.200Z,1292
2017-11-03T12:55:05.372Z,1284
2017-11-03T12:55:37.452Z,1272
2017-11-03T12:56:09.584Z,1268
2017-11-03T12:56:41.766Z,1260
2017-11-03T12:57:13.893Z,1248
2017-11-03T12:57:46.090Z,1240
2017-11-03T12:58:18.253Z,1228
2017-11-03T12:58:50.460Z,1224
2017-11-03T12:59:22.524Z,1220
2017-11-03T12:59:54.640Z,1212
2017-11-03T13:00:26.801Z,1204
2017-11-03T13:00:58.978Z,1196
2017-11-03T13:01:31.172Z,1192
2017-11-03T13:02:03.459Z,1188
2017-11-03T13:02:35.594Z,1180
2017-11-03T13:03:07.764Z,1176
2017-11-03T13:03:39.960Z,1176
2017-11-03T13:04:12.035Z,1172
2017-11-03T13:04:44.101Z,1176
2017-11-03T13:05:16.290Z,1172
2017-11-03T13:05:48.469Z,1168
2017-11-03T13:06:20.545Z,1168
2017-11-03T13:06:52.804Z,1168
2017-11-03T13:07:24.998Z,1160
2017-11-03T13:07:57.070Z,1160
2017-11-03T13:08:29.314Z,1156
2017-11-03T13:09:01.528Z,1148
2017-11-03T13:09:33.585Z,1136
2017-11-03T13:10:05.678Z,1132
2017-11-03T13:10:37.887Z,1124
2017-11-03T13:11:09.971Z,1120
2017-11-03T13:11:42.106Z,1120
2017-11-03T13:12:14.336Z,1124
2017-11-03T13:12:46.414Z,1132
2017-11-03T13:13:18.535Z,1132
2017-11-03T13:13:50.628Z,1128
2017-11-03T13:14:22.769Z,1120
2017-11-03T13:14:54.910Z,1112
2017-11-03T13:15:27.036Z,1104
2017-11-03T13:15:59.121Z,1104
2017-11-03T13:16:31.305Z,1104
2017-11-03T13:17:03.552Z,1108
2017-11-03T13:17:35.733Z,1104
2017-11-03T13:18:07.881Z,1096
2017-11-03T13:18:40.131Z,1092
2017-11-03T13:19:12.268Z,1084
2017-11-03T13:19:44.290Z,1080
2017-11-03T13:20:16.461Z,1076
2017-11-03T13:20:48.588Z,1072
2017-11-03T13:21:20.767Z,1068
2017-11-03T13:21:52.841Z,1068
2017-11-03T13:22:24.975Z,1064
2017-11-03T13:22:57.037Z,1056
2017-11-03T13:23:29.100Z,1044
2017-11-03T13:24:01.353Z,1036
2017-11-03T13:24:33.448Z,1028
2017-11-03T13:25:05.621Z,1024
2017-11-03T13:25:37.703Z,1016
2017-11-03T13:26:09.852Z,1016
2017-11-03T13:26:42.055Z,1004
2017-11-03T13:27:14.125Z,1000
2017-11-03T13:27:46.458Z,992
2017-11-03T13:28:18.492Z,992
2017-11-03T13:28:50.613Z,984
2017-11-03T13:29:22.682Z,976
2017-11-03T13:29:54.807Z,972
2017-11-03T13:30:26.854Z,968
2017-11-03T13:30:58.885Z,968
2017-11-03T13:31:30.976Z,960
2017-11-03T13:32:03.101Z,960
2017-11-03T13:32:35.166Z,956
2017-11-03T13:33:07.380Z,952
2017-11-03T13:33:39.594Z,948
2017-11-03T13:34:11.842Z,944
2017-11-03T13:34:43.977Z,944
2017-11-03T13:35:16.611Z,940
2017-11-03T13:35:48.793Z,936
2017-11-03T13:36:21.881Z,928
2017-11-03T13:36:54.004Z,928
2017-11-03T13:37:26.237Z,924
2017-11-03T13:37:58.316Z,928
2017-11-03T13:38:30.486Z,932
2017-11-03T13:39:02.625Z,944
2017-11-03T13:39:34.881Z,964
2017-11-03T13:40:07.156Z,992
2017-11-03T13:40:39.360Z,1024
2017-11-03T13:41:11.588Z,1044
2017-11-03T13:41:43.811Z,1056
2017-11-03T13:42:15.966Z,1052
2017-11-03T13:42:48.136Z,1040
2017-11-03T13:43:20.280Z,1012
2017-11-03T13:43:52.480Z,984
2017-11-03T13:44:24.679Z,964
2017-11-03T13:44:56.948Z,952
2017-11-03T13:45:29.021Z,936
2017-11-03T13:46:01.312Z,920
2017-11-03T13:46:33.410Z,908
2017-11-03T13:47:05.602Z,892
2017-11-03T13:47:37.864Z,884
2017-11-03T13:48:10.039Z,876
2017-11-03T13:48:42.252Z,872
2017-11-03T13:49:14.341Z,864
2017-11-03T13:49:46.489Z,860
2017-11-03T13:50:18.648Z,860
2017-11-03T13:50:50.755Z,860
2017-11-03T13:51:22.968Z,860
2017-11-03T13:51:55.108Z,860
2017-11-03T13:52:27.174Z,860
2017-11-03T13:52:59.379Z,860
2017-11-03T13:53:31.459Z,864
2017-11-03T13:54:03.614Z,856
2017-11-03T13:54:35.762Z,848
2017-11-03T13:55:07.960Z,844
2017-11-03T13:55:40.623Z,832
2017-11-03T13:56:12.748Z,824
2017-11-03T13:56:45.072Z,820
2017-11-03T13:57:17.316Z,816
2017-11-03T13:57:49.373Z,816
2017-11-03T13:58:21.563Z,816
2017-11-03T13:58:53.654Z,816
2017-11-03T13:59:25.836Z,812
2017-11-03T13:59:57.884Z,808
2017-11-03T14:00:30.010Z,808
2017-11-03T14:01:02.199Z,804
2017-11-03T14:01:34.400Z,792
2017-11-03T14:02:06.424Z,780
2017-11-03T14:02:38.629Z,772
2017-11-03T14:03:10.713Z,760
2017-11-03T14:03:42.854Z,752
2017-11-03T14:04:14.917Z,740
2017-11-03T14:04:47.072Z,728
2017-11-03T14:05:19.162Z,720
2017-11-03T14:05:51.248Z,712
2017-11-03T14:06:23.369Z,704
2017-11-03T14:06:55.673Z,696
2017-11-03T14:07:27.801Z,688
2017-11-03T14:07:59.889Z,684
2017-11-03T14:08:31.974Z,684
2017-11-03T14:09:04.193Z,680
2017-11-03T14:09:36.516Z,680
2017-11-03T14:10:08.549Z,672
2017-11-03T14:10:40.705Z,672
2017-11-03T14:11:12.859Z,668
2017-11-03T14:11:45.013Z,660
2017-11-03T14:12:17.082Z,660
2017-11-03T14:12:49.246Z,660
2017-11-03T14:13:21.442Z,656
2017-11-03T14:13:53.569Z,656
2017-11-03T14:14:25.815Z,656
2017-11-03T14:14:58.014Z,652
2017-11-03T14:15:30.095Z,644
2017-11-03T14:16:02.234Z,644
2017-11-03T14:16:34.304Z,632
2017-11-03T14:17:06.521Z,624
2017-11-03T14:17:38.601Z,616
2017-11-03T14:18:10.672Z,608
2017-11-03T14:18:42.822Z,600
2017-11-03T14:19:14.903Z,592
2017-11-03T14:19:47.139Z,588
2017-11-03T14:20:19.232Z,588
2017-11-03T14:20:51.443Z,588
2017-11-03T14:21:23.466Z,580
2017-11-03T14:21:55.628Z,580
2017-11-03T14:22:27.846Z,576
2017-11-03T14:23:00.063Z,572
2017-11-03T14:23:32.253Z,568
2017-11-03T14:24:04.386Z,560
2017-11-03T14:24:36.642Z,556
2017-11-03T14:25:09.539Z,548
2017-11-03T14:25:41.658Z,544
2017-11-03T14:26:13.745Z,536
2017-11-03T14:26:45.987Z,528
2017-11-03T14:27:18.075Z,524
2017-11-03T14:27:50.227Z,516
2017-11-03T14:28:22.373Z,512
2017-11-03T14:28:54.536Z,504
2017-11-03T14:29:26.748Z,500
2017-11-03T14:29:58.908Z,496
2017-11-03T14:30:31.047Z,492
2017-11-03T14:31:03.138Z,488
2017-11-03T14:31:35.263Z,484
2017-11-03T14:32:07.445Z,480
2017-11-03T14:32:39.509Z,476
2017-11-03T14:33:11.599Z,472
2017-11-03T14:33:43.843Z,468
2017-11-03T14:34:15.941Z,464
2017-11-03T14:34:48.637Z,460
2017-11-03T14:35:20.786Z,456
2017-11-03T14:35:53.018Z,456
2017-11-03T14:36:25.674Z,452
2017-11-03T14:36:57.755Z,452
2017-11-03T14:37:30.110Z,452
2017-11-03T14:38:02.346Z,452
2017-11-03T14:38:34.421Z,452
2017-11-03T14:39:06.507Z,444
2017-11-03T14:39:38.624Z,444
2017-11-03T14:40:11.451Z,440
2017-11-03T14:40:43.615Z,436
2017-11-03T14:41:15.823Z,436
2017-11-03T14:41:47.911Z,432
2017-11-03T14:42:20.148Z,428
2017-11-03T14:42:52.333Z,420
2017-11-03T14:43:24.520Z,416
2017-11-03T14:43:56.657Z,412
2017-11-03T14:44:28.785Z,408
2017-11-03T14:45:01.004Z,404
2017-11-03T14:45:33.097Z,400
2017-11-03T14:46:05.310Z,392
2017-11-03T14:46:37.355Z,388
2017-11-03T14:47:09.431Z,380
2017-11-03T14:47:41.647Z,380
2017-11-03T14:48:13.831Z,380
2017-11-03T14:48:45.966Z,380
2017-11-03T14:49:18.639Z,380
2017-11-03T14:49:50.775Z,376
2017-11-03T14:50:22.973Z,372
2017-11-03T14:50:55.234Z,368
2017-11-03T14:51:27.402Z,368
2017-11-03T14:51:59.721Z,364
2017-11-03T14:52:31.859Z,360
2017-11-03T14:53:03.924Z,352
2017-11-03T14:53:36.029Z,348
2017-11-03T14:54:08.239Z,344
2017-11-03T14:54:40.381Z,336
2017-11-03T14:55:12.458Z,336
2017-11-03T14:55:44.692Z,332
2017-11-03T14:56:16.804Z,332
2017-11-03T14:56:48.834Z,328
2017-11-03T14:57:20.906Z,328
2017-11-03T14:57:53.062Z,324
2017-11-03T14:58:25.125Z,320
2017-11-03T14:58:57.265Z,316
2017-11-03T14:59:29.470Z,312
2017-11-03T15:00:01.691Z,308
2017-11-03T15:00:33.976Z,304
2017-11-03T15:01:06.173Z,300
2017-11-03T15:01:38.353Z,300
2017-11-03T15:02:10.477Z,296
2017-11-03T15:02:42.689Z,292
2017-11-03T15:03:14.722Z,288
2017-11-03T15:03:46.926Z,288
2017-11-03T15:04:19.052Z,288
2017-11-03T15:04:51.191Z,288
2017-11-03T15:05:23.286Z,280
2017-11-03T15:05:55.448Z,280
2017-11-03T15:06:27.609Z,272
2017-11-03T15:06:59.788Z,268
2017-11-03T15:07:31.904Z,264
2017-11-03T15:08:04.143Z,260
2017-11-03T15:08:36.358Z,252
2017-11-03T15:09:08.544Z,252
2017-11-03T15:09:40.648Z,244
2017-11-03T15:10:12.845Z,240
2017-11-03T15:10:44.877Z,236
2017-11-03T15:11:16.997Z,236
2017-11-03T15:11:49.026Z,232
2017-11-03T15:12:21.055Z,232
2017-11-03T15:12:53.296Z,232
2017-11-03T15:13:25.544Z,232
2017-11-03T15:13:57.621Z,236
2017-11-03T15:14:29.795Z,236
2017-11-03T15:15:02.115Z,232
2017-11-03T15:15:34.323Z,232
2017-11-03T15:16:06.422Z,232
2017-11-03T15:16:38.580Z,228
2017-11-03T15:17:11.511Z,224
2017-11-03T15:17:43.614Z,220
2017-11-03T15:18:15.830Z,220
2017-11-03T15:18:47.903Z,216
2017-11-03T15:19:20.000Z,212
2017-11-03T15:19:52.085Z,212
2017-11-03T15:20:24.245Z,208
2017-11-03T15:20:56.484Z,208
2017-11-03T15:21:28.717Z,204
2017-11-03T15:22:00.733Z,204
2017-11-03T15:22:33.671Z,200
2017-11-03T15:23:05.743Z,196
2017-11-03T15:23:37.935Z,192
2017-11-03T15:24:10.111Z,188
2017-11-03T15:24:42.231Z,180
2017-11-03T15:25:14.450Z,172
2017-11-03T15:25:46.539Z,168
2017-11-03T15:26:18.743Z,164
2017-11-03T15:26:50.914Z,156
2017-11-03T15:27:23.042Z,156
2017-11-03T15:27:55.109Z,148
2017-11-03T15:28:27.256Z,148
2017-11-03T15:28:59.496Z,144
2017-11-03T15:29:31.693Z,144
2017-11-03T15:30:03.817Z,144
2017-11-03T15:30:35.887Z,140
2017-11-03T15:31:07.962Z,136
2017-11-03T15:31:40.149Z,136
2017-11-03T15:32:12.396Z,132
2017-11-03T15:32:44.534Z,128
2017-11-03T15:33:16.740Z,124
2017-11-03T15:33:48.931Z,120
2017-11-03T15:34:21.705Z,120
2017-11-03T15:34:53.911Z,116
2017-11-03T15:35:26.050Z,112
2017-11-03T15:35:58.238Z,108
2017-11-03T15:36:30.438Z,104
2017-11-03T15:37:02.570Z,104
2017-11-03T15:37:34.819Z,100
2017-11-03T15:38:06.893Z,96
2017-11-03T15:38:39.218Z,96
2017-11-03T15:39:11.897Z,92
2017-11-03T15:39:44.013Z,92
2017-11-03T15:40:16.101Z,88
2017-11-03T15:40:48.303Z,84
2017-11-03T15:41:20.555Z,84
2017-11-03T15:41:52.723Z,80
2017-11-03T15:42:24.767Z,80
2017-11-03T15:42:56.906Z,76
2017-11-03T15:43:29.039Z,76
2017-11-03T15:44:01.168Z,72
2017-11-03T15:44:33.335Z,72
2017-11-03T15:45:05.527Z,68
2017-11-03T15:45:37.714Z,64
2017-11-03T15:46:09.972Z,60
2017-11-03T15:46:42.026Z,60
2017-11-03T15:47:14.109Z,60
2017-11-03T15:47:46.219Z,52
2017-11-03T15:48:18.346Z,52
2017-11-03T15:48:50.519Z,48
2017-11-03T15:49:22.654Z,48
2017-11-03T15:49:54.841Z,44
2017-11-03T15:50:26.929Z,48
2017-11-03T15:50:59.113Z,40
2017-11-03T15:51:31.359Z,40
2017-11-03T15:52:03.555Z,40
2017-11-03T15:52:35.730Z,36
2017-11-03T15:53:07.867Z,32
2017-11-03T15:53:40.017Z,32
2017-11-03T15:54:12.088Z,32
2017-11-03T15:54:44.233Z,28
2017-11-03T15:55:16.361Z,28
2017-11-03T15:55:48.561Z,28
2017-11-03T15:56:20.719Z,24
2017-11-03T15:56:52.837Z,24
2017-11-03T15:57:24.986Z,20
2017-11-03T15:57:57.018Z,20
2017-11-03T15:58:29.104Z,20
2017-11-03T15:59:01.251Z,16
2017-11-03T15:59:34.155Z,20
2017-11-03T16:00:06.351Z,16
2017-11-03T16:00:39.042Z,16
2017-11-03T16:01:11.140Z,16
2017-11-03T16:01:43.275Z,12
2017-11-03T16:02:15.430Z,12
2017-11-03T16:02:47.611Z,12
2017-11-03T16:03:19.757Z,12
2017-11-03T16:03:51.909Z,8
2017-11-03T16:04:24.052Z,12
2017-11-03T16:04:56.312Z,8
2017-11-03T16:05:28.517Z,8
2017-11-03T16:06:00.704Z,8
2017-11-03T16:06:32.774Z,8
2017-11-03T16:07:04.977Z,8
2017-11-03T16:07:37.131Z,8
2017-11-03T16:08:09.949Z,4
2017-11-03T16:08:42.147Z,4
2017-11-03T16:09:14.352Z,8
2017-11-03T16:09:46.624Z,4
2017-11-03T16:10:18.712Z,4
2017-11-03T16:10:51.140Z,4
2017-11-03T16:11:23.294Z,4
2017-11-03T16:11:55.436Z,0
2017-11-03T16:12:27.520Z,4
2017-11-03T16:12:59.665Z,4
2017-11-03T16:13:31.792Z,4
2017-11-03T16:14:03.928Z,4